createdAt,value
2023-02-02T00:02:15.699Z,1.80
2023-02-02T00:04:43.014Z,2.03
2023-02-02T00:07:10.344Z,2.07
2023-02-02T00:09:37.588Z,1.57
2023-02-02T00:12:05.875Z,3.33
2023-02-02T00:14:33.097Z,4.13
2023-02-02T00:17:00.472Z,1.30
2023-02-02T00:19:30.771Z,1.90
2023-02-02T00:21:58.724Z,1.27
2023-02-02T00:24:25.980Z,1.67
2023-02-02T00:26:55.872Z,1.80
2023-02-02T00:29:25.134Z,1.87
2023-02-02T00:31:52.568Z,2.17
2023-02-02T00:34:20.332Z,1.30
2023-02-02T00:36:48.269Z,1.90
2023-02-02T00:39:18.431Z,1.47
2023-02-02T00:41:46.199Z,1.70
2023-02-02T00:44:32.085Z,2.00
2023-02-02T00:47:00.022Z,1.23
2023-02-02T00:49:27.323Z,1.57
2023-02-02T00:51:54.836Z,1.57
2023-02-02T00:54:22.394Z,2.17
2023-02-02T00:56:49.680Z,1.73
2023-02-02T00:59:17.034Z,1.57
2023-02-02T01:01:44.452Z,1.20
2023-02-02T01:04:12.417Z,2.10
2023-02-02T01:06:39.685Z,1.30
2023-02-02T01:09:06.949Z,1.70
2023-02-02T01:11:34.203Z,2.00
2023-02-02T01:14:01.869Z,2.73
2023-02-02T01:16:29.253Z,1.87
2023-02-02T01:18:56.630Z,3.07
2023-02-02T01:21:24.546Z,1.47
2023-02-02T01:23:51.833Z,2.07
2023-02-02T01:26:19.198Z,1.80
2023-02-02T01:28:46.647Z,3.10
2023-02-02T01:31:15.401Z,2.00
2023-02-02T01:33:43.651Z,2.10
2023-02-02T01:36:13.030Z,1.80
2023-02-02T01:38:41.752Z,1.87
2023-02-02T01:41:11.461Z,2.37
2023-02-02T01:43:59.518Z,1.27
2023-02-02T01:46:28.655Z,3.00
2023-02-02T01:49:01.813Z,2.37
2023-02-02T01:51:34.618Z,1.90
2023-02-02T01:54:06.093Z,1.57
2023-02-02T01:56:36.153Z,2.50
2023-02-02T01:59:04.841Z,1.43
2023-02-02T02:01:32.202Z,2.07
2023-02-02T02:03:59.483Z,1.00
2023-02-02T02:06:27.977Z,2.40
2023-02-02T02:08:57.563Z,1.30
2023-02-02T02:11:26.046Z,2.30
2023-02-02T02:14:12.976Z,1.80
2023-02-02T02:16:53.631Z,2.40
2023-02-02T02:20:12.087Z,2.00
2023-02-02T02:23:14.868Z,1.60
2023-02-02T02:26:20.003Z,2.17
2023-02-02T02:29:31.838Z,2.03
2023-02-02T02:32:24.386Z,0.80
2023-02-02T02:34:55.973Z,1.83
2023-02-02T02:37:36.661Z,1.27
2023-02-02T02:40:10.900Z,2.00
2023-02-02T02:42:41.626Z,1.53
2023-02-02T02:45:11.164Z,1.47
2023-02-02T02:47:40.867Z,1.93
2023-02-02T02:50:09.127Z,2.17
2023-02-02T02:52:37.936Z,1.70
2023-02-02T02:55:06.758Z,1.70
2023-02-02T02:57:51.609Z,3.37
2023-02-02T03:00:41.796Z,2.20
2023-02-02T03:03:23.050Z,1.97
2023-02-02T03:05:55.643Z,2.00
2023-02-02T03:08:30.839Z,1.63
2023-02-02T03:11:01.571Z,2.00
2023-02-02T03:13:29.280Z,1.30
2023-02-02T03:15:57.353Z,0.97
2023-02-02T03:18:27.470Z,1.80
2023-02-02T03:20:54.878Z,1.40
2023-02-02T03:23:22.565Z,1.80
2023-02-02T03:25:49.910Z,2.33
2023-02-02T03:28:18.656Z,2.03
2023-02-02T03:30:47.465Z,2.10
2023-02-02T03:33:15.578Z,1.23
2023-02-02T03:35:43.593Z,0.90
2023-02-02T03:38:11.903Z,0.97
2023-02-02T03:40:39.349Z,1.83
2023-02-02T03:43:06.855Z,2.20
2023-02-02T03:45:34.959Z,1.20
2023-02-02T03:48:03.809Z,2.90
2023-02-02T03:50:31.059Z,1.40
2023-02-02T03:52:59.034Z,1.90
2023-02-02T03:55:26.458Z,1.50
2023-02-02T03:57:53.855Z,1.93
2023-02-02T04:00:21.705Z,1.70
2023-02-02T04:02:49.003Z,1.30
2023-02-02T04:05:16.544Z,1.07
2023-02-02T04:07:43.816Z,2.17
2023-02-02T04:10:12.382Z,2.37
2023-02-02T04:12:39.626Z,1.63
2023-02-02T04:15:08.067Z,1.10
2023-02-02T04:17:35.522Z,1.00
2023-02-02T04:20:03.077Z,1.53
2023-02-02T04:22:30.316Z,1.53
2023-02-02T04:24:57.573Z,1.40
2023-02-02T04:27:25.638Z,1.40
2023-02-02T04:29:52.871Z,1.67
2023-02-02T04:32:20.138Z,1.40
2023-02-02T04:34:47.383Z,1.80
2023-02-02T04:37:14.625Z,1.50
2023-02-02T04:39:41.853Z,0.73
2023-02-02T04:42:09.079Z,1.83
2023-02-02T04:44:36.938Z,1.60
2023-02-02T04:47:04.226Z,1.40
2023-02-02T04:49:31.453Z,1.10
2023-02-02T04:51:58.715Z,1.50
2023-02-02T04:54:25.935Z,1.50
2023-02-02T04:56:53.170Z,1.87
2023-02-02T04:59:20.365Z,1.50
2023-02-02T05:01:49.372Z,1.00
2023-02-02T05:04:16.718Z,1.20
2023-02-02T05:06:44.000Z,1.63
2023-02-02T05:09:11.431Z,1.73
2023-02-02T05:11:40.358Z,1.40
2023-02-02T05:14:08.202Z,3.23
2023-02-02T05:16:35.472Z,1.60
2023-02-02T05:19:04.346Z,1.60
2023-02-02T05:21:31.723Z,1.60
2023-02-02T05:24:00.444Z,1.93
2023-02-02T05:26:28.095Z,2.33
2023-02-02T05:28:56.103Z,1.70
2023-02-02T05:31:23.531Z,2.20
2023-02-02T05:33:50.784Z,2.07
2023-02-02T05:36:18.940Z,1.70
2023-02-02T05:38:46.231Z,2.13
2023-02-02T05:41:13.606Z,2.80
2023-02-02T05:43:40.913Z,2.37
2023-02-02T05:46:08.289Z,2.10
2023-02-02T05:48:35.534Z,1.60
2023-02-02T05:51:10.708Z,1.70
2023-02-02T05:53:38.990Z,2.23
2023-02-02T05:56:06.644Z,3.27
2023-02-02T05:58:33.913Z,2.17
2023-02-02T06:01:01.202Z,1.53
2023-02-02T06:03:28.573Z,2.17
2023-02-02T06:05:55.868Z,2.23
2023-02-02T06:08:23.238Z,1.80
2023-02-02T06:10:51.238Z,1.60
2023-02-02T06:13:18.489Z,2.00
2023-02-02T06:15:45.846Z,1.67
2023-02-02T06:18:13.123Z,1.80
2023-02-02T06:20:40.454Z,1.30
2023-02-02T06:23:07.725Z,2.47
2023-02-02T06:25:35.039Z,2.30
2023-02-02T06:28:03.129Z,4.40
2023-02-02T06:30:30.626Z,3.50
2023-02-02T06:33:00.490Z,2.40
2023-02-02T06:35:27.878Z,2.60
2023-02-02T06:37:55.183Z,2.30
2023-02-02T06:40:22.454Z,2.17
2023-02-02T06:42:54.931Z,1.17
2023-02-02T06:45:23.074Z,1.50
2023-02-02T06:47:50.616Z,1.60
2023-02-02T06:50:18.224Z,2.10
2023-02-02T06:52:48.614Z,0.90
2023-02-02T06:55:16.357Z,1.83
2023-02-02T06:57:43.640Z,2.57
2023-02-02T07:00:12.090Z,2.83
2023-02-02T07:02:40.006Z,2.20
2023-02-02T07:05:07.614Z,1.83
2023-02-02T07:07:35.419Z,1.80
2023-02-02T07:10:02.945Z,2.07
2023-02-02T07:12:30.188Z,1.60
2023-02-02T07:14:58.713Z,1.83
2023-02-02T07:17:25.990Z,2.90
2023-02-02T07:19:53.939Z,2.70
2023-02-02T07:22:21.207Z,2.67
2023-02-02T07:24:48.438Z,3.00
2023-02-02T07:27:15.702Z,2.00
2023-02-02T07:29:43.029Z,2.00
2023-02-02T07:32:10.323Z,1.93
2023-02-02T07:34:38.871Z,2.67
2023-02-02T07:37:06.799Z,3.27
2023-02-02T07:39:34.062Z,2.07
2023-02-02T07:42:01.336Z,2.20
2023-02-02T07:44:28.756Z,2.83
2023-02-02T07:46:56.046Z,2.57
2023-02-02T07:49:23.342Z,2.93
2023-02-02T07:51:50.598Z,1.80
2023-02-02T07:54:18.591Z,1.30
2023-02-02T07:56:45.889Z,2.07
2023-02-02T07:59:13.180Z,2.87
2023-02-02T08:01:41.501Z,2.10
2023-02-02T08:04:10.002Z,2.77
2023-02-02T08:06:39.767Z,2.73
2023-02-02T08:09:10.750Z,1.30
2023-02-02T08:11:39.807Z,1.87
2023-02-02T08:14:14.387Z,2.73
2023-02-02T08:16:41.723Z,2.27
2023-02-02T08:19:11.629Z,1.77
2023-02-02T08:21:40.927Z,2.27
2023-02-02T08:24:09.478Z,2.00
2023-02-02T08:26:37.920Z,3.17
2023-02-02T08:29:12.542Z,2.97
2023-02-02T08:31:42.220Z,3.07
2023-02-02T08:34:10.073Z,2.90
2023-02-02T08:36:37.765Z,2.37
2023-02-02T08:39:06.603Z,3.20
2023-02-02T08:41:34.101Z,1.80
2023-02-02T08:44:04.586Z,2.00
2023-02-02T08:46:31.928Z,2.83
2023-02-02T08:48:59.790Z,2.60
2023-02-02T08:51:27.084Z,3.23
2023-02-02T08:53:54.555Z,2.13
2023-02-02T08:56:22.815Z,2.77
2023-02-02T08:58:52.125Z,3.63
2023-02-02T09:01:22.905Z,5.50
2023-02-02T09:03:54.316Z,2.13
2023-02-02T09:06:22.972Z,3.80
2023-02-02T09:08:50.316Z,4.77
2023-02-02T09:11:19.118Z,2.33
2023-02-02T09:13:48.445Z,2.00
2023-02-02T09:16:17.559Z,2.07
2023-02-02T09:18:46.041Z,2.47
2023-02-02T09:21:22.498Z,2.70
2023-02-02T09:23:52.370Z,2.63
2023-02-02T09:26:22.005Z,2.63
2023-02-02T09:28:52.175Z,2.00
2023-02-02T09:31:20.006Z,2.60
2023-02-02T09:33:48.164Z,1.97
2023-02-02T09:36:16.835Z,2.57
2023-02-02T09:38:44.820Z,2.10
2023-02-02T09:41:39.771Z,2.93
2023-02-02T09:44:14.030Z,1.50
2023-02-02T09:46:52.256Z,1.77
2023-02-02T09:49:32.448Z,2.23
2023-02-02T09:52:07.771Z,3.10
2023-02-02T09:54:40.702Z,1.90
2023-02-02T09:57:16.144Z,1.10
2023-02-02T09:59:46.438Z,2.77
2023-02-02T10:02:18.377Z,2.20
2023-02-02T10:04:49.973Z,3.37
2023-02-02T10:07:19.368Z,3.70
2023-02-02T10:09:53.459Z,2.30
2023-02-02T10:12:31.243Z,3.33
2023-02-02T10:15:05.823Z,3.30
2023-02-02T10:17:40.378Z,2.63
2023-02-02T10:20:26.736Z,2.93
2023-02-02T10:22:57.772Z,2.47
2023-02-02T10:25:28.615Z,2.87
2023-02-02T10:28:04.458Z,2.07
2023-02-02T10:30:43.687Z,2.07
2023-02-02T10:33:20.200Z,2.30
2023-02-02T10:35:55.162Z,2.57
2023-02-02T10:38:29.034Z,2.13
2023-02-02T10:41:04.348Z,2.17
2023-02-02T10:43:51.604Z,2.30
2023-02-02T10:46:24.575Z,3.87
2023-02-02T10:49:02.206Z,1.90
2023-02-02T10:51:30.731Z,2.80
2023-02-02T10:54:00.793Z,2.40
2023-02-02T10:56:36.119Z,2.63
2023-02-02T10:59:09.789Z,2.80
2023-02-02T11:01:37.123Z,1.47
2023-02-02T11:04:22.460Z,1.63
2023-02-02T11:06:50.427Z,2.27
2023-02-02T11:09:21.209Z,2.27
2023-02-02T11:11:54.113Z,2.30
2023-02-02T11:14:44.568Z,3.13
2023-02-02T11:17:20.704Z,2.70
2023-02-02T11:19:49.473Z,2.63
2023-02-02T11:22:41.255Z,2.77
2023-02-02T11:25:27.663Z,2.17
2023-02-02T11:27:54.935Z,2.13
2023-02-02T11:30:27.874Z,2.00
2023-02-02T11:32:55.933Z,1.97
2023-02-02T11:35:25.048Z,2.70
2023-02-02T11:38:07.825Z,3.10
2023-02-02T11:40:37.325Z,2.40
2023-02-02T11:43:14.383Z,4.20
2023-02-02T11:45:43.834Z,5.90
2023-02-02T11:48:16.583Z,3.90
2023-02-02T11:50:47.606Z,3.10
2023-02-02T11:53:26.069Z,3.60
2023-02-02T11:55:54.758Z,2.50
2023-02-02T11:58:29.688Z,1.50
2023-02-02T12:01:00.134Z,3.17
2023-02-02T12:03:31.853Z,2.73
2023-02-02T12:06:01.282Z,2.40
2023-02-02T12:08:30.061Z,1.97
2023-02-02T12:11:02.299Z,2.40
2023-02-02T12:13:43.511Z,1.20
2023-02-02T12:16:38.921Z,3.37
2023-02-02T12:19:29.292Z,1.93
2023-02-02T12:22:09.904Z,2.93
2023-02-02T12:24:52.280Z,3.60
2023-02-02T12:27:35.622Z,1.87
2023-02-02T12:30:19.986Z,2.67
2023-02-02T12:33:14.190Z,2.00
2023-02-02T12:35:58.648Z,1.90
2023-02-02T12:38:41.727Z,2.10
2023-02-02T12:41:36.725Z,2.43
2023-02-02T12:44:12.767Z,2.83
2023-02-02T12:46:52.725Z,2.47
2023-02-02T12:49:40.327Z,2.60
2023-02-02T12:52:20.441Z,2.00
2023-02-02T12:55:15.001Z,1.40
2023-02-02T12:58:06.398Z,3.63
2023-02-02T13:00:55.366Z,2.40
2023-02-02T13:03:31.950Z,2.57
2023-02-02T13:06:42.896Z,1.40
2023-02-02T13:09:15.429Z,2.40
2023-02-02T13:11:49.113Z,2.10
2023-02-02T13:14:25.926Z,2.30
2023-02-02T13:16:56.834Z,2.53
2023-02-02T13:19:30.698Z,2.17
2023-02-02T13:22:02.763Z,1.40
2023-02-02T13:24:34.755Z,2.33
2023-02-02T13:27:07.985Z,2.83
2023-02-02T13:29:46.015Z,2.20
2023-02-02T13:32:21.583Z,2.27
2023-02-02T13:34:52.277Z,1.17
2023-02-02T13:37:26.267Z,1.70
2023-02-02T13:40:04.761Z,2.10
2023-02-02T13:42:43.875Z,2.03
2023-02-02T13:45:47.333Z,1.67
2023-02-02T13:48:35.279Z,2.10
2023-02-02T13:51:40.403Z,2.30
2023-02-02T13:54:36.761Z,1.90
2023-02-02T13:57:33.536Z,2.17
2023-02-02T14:00:15.693Z,2.50
2023-02-02T14:02:51.157Z,2.40
2023-02-02T14:05:25.413Z,3.70
2023-02-02T14:08:03.677Z,2.40
2023-02-02T14:10:42.460Z,1.70
2023-02-02T14:13:58.000Z,2.03
2023-02-02T14:16:44.976Z,1.67
2023-02-02T14:19:53.243Z,2.63
2023-02-02T14:22:42.609Z,1.63
2023-02-02T14:26:04.878Z,2.33
2023-02-02T14:28:47.256Z,4.10
2023-02-02T14:31:50.999Z,1.77
2023-02-02T14:34:33.003Z,1.87
2023-02-02T14:37:38.697Z,2.33
2023-02-02T14:40:43.106Z,1.70
2023-02-02T14:43:39.646Z,3.03
2023-02-02T14:46:32.381Z,2.60
2023-02-02T14:49:16.051Z,2.17
2023-02-02T14:51:51.120Z,2.97
2023-02-02T14:54:25.144Z,2.30
2023-02-02T14:56:56.703Z,2.60
2023-02-02T14:59:27.195Z,2.00
2023-02-02T15:02:01.087Z,1.73
2023-02-02T15:04:29.822Z,3.00
2023-02-02T15:07:41.831Z,1.87
2023-02-02T15:10:10.960Z,7.80
2023-02-02T15:12:42.535Z,4.50
2023-02-02T15:15:18.265Z,7.37
2023-02-02T15:18:01.201Z,4.30
2023-02-02T15:20:32.533Z,2.03
2023-02-02T15:23:05.356Z,1.87
2023-02-02T15:25:39.849Z,1.87
2023-02-02T15:28:13.748Z,2.53
2023-02-02T15:30:45.319Z,2.97
2023-02-02T15:33:26.936Z,2.90
2023-02-02T15:35:57.069Z,2.47
2023-02-02T15:38:33.122Z,2.07
2023-02-02T15:41:04.665Z,1.87
2023-02-02T15:43:34.103Z,2.17
2023-02-02T15:46:05.377Z,1.80
2023-02-02T15:48:34.120Z,1.60
2023-02-02T15:51:04.561Z,2.83
2023-02-02T15:53:50.992Z,3.13
2023-02-02T15:56:21.111Z,3.43
2023-02-02T15:58:49.530Z,5.90
2023-02-02T16:01:20.741Z,7.17
2023-02-02T16:03:52.319Z,2.53
2023-02-02T16:06:20.485Z,2.17
2023-02-02T16:08:49.957Z,2.00
2023-02-02T16:11:19.624Z,2.30
2023-02-02T16:14:01.665Z,3.40
2023-02-02T16:16:30.800Z,1.93
2023-02-02T16:19:14.937Z,2.13
2023-02-02T16:21:47.575Z,2.37
2023-02-02T16:24:20.580Z,1.60
2023-02-02T16:27:12.704Z,1.53
2023-02-02T16:29:40.769Z,1.73
2023-02-02T16:32:25.427Z,1.70
2023-02-02T16:34:52.775Z,0.90
2023-02-02T16:37:24.829Z,2.53
2023-02-02T16:39:53.331Z,4.07
2023-02-02T16:42:26.064Z,1.33
2023-02-02T16:44:53.818Z,3.83
2023-02-02T16:47:34.303Z,2.20
2023-02-02T16:50:26.287Z,1.50
2023-02-02T16:52:55.710Z,2.47
2023-02-02T16:55:24.147Z,6.30
2023-02-02T16:57:52.076Z,4.60
2023-02-02T17:00:21.750Z,5.50
2023-02-02T17:02:51.787Z,4.97
2023-02-02T17:05:22.167Z,4.30
2023-02-02T17:07:54.085Z,3.93
2023-02-02T17:10:27.015Z,3.30
2023-02-02T17:12:54.343Z,2.90
2023-02-02T17:15:28.720Z,3.33
2023-02-02T17:17:56.489Z,3.20
2023-02-02T17:20:24.584Z,2.93
2023-02-02T17:22:54.961Z,7.60
2023-02-02T17:25:30.181Z,7.27
2023-02-02T17:27:58.789Z,3.67
2023-02-02T17:30:27.605Z,2.90
2023-02-02T17:32:55.056Z,2.60
2023-02-02T17:35:23.834Z,1.90
2023-02-02T17:37:52.046Z,2.93
2023-02-02T17:40:21.035Z,4.00
2023-02-02T17:42:50.938Z,3.13
2023-02-02T17:45:20.869Z,3.10
2023-02-02T17:47:48.361Z,2.77
2023-02-02T17:50:16.755Z,2.87
2023-02-02T17:52:48.222Z,8.50
2023-02-02T17:55:20.605Z,4.50
2023-02-02T17:57:49.117Z,2.13
2023-02-02T18:00:17.667Z,3.23
2023-02-02T18:02:46.059Z,3.23
2023-02-02T18:05:14.763Z,3.70
2023-02-02T18:07:42.818Z,5.17
2023-02-02T18:10:12.978Z,3.53
2023-02-02T18:12:40.340Z,3.27
2023-02-02T18:15:11.389Z,3.63
2023-02-02T18:17:38.790Z,4.37
2023-02-02T18:20:07.225Z,4.43
2023-02-02T18:22:34.635Z,5.40
2023-02-02T18:25:03.496Z,5.83
2023-02-02T18:27:30.731Z,5.73
2023-02-02T18:29:57.941Z,5.67
2023-02-02T18:32:26.075Z,4.13
2023-02-02T18:34:55.226Z,4.27
2023-02-02T18:37:23.310Z,3.00
2023-02-02T18:39:51.222Z,4.60
2023-02-02T18:42:18.568Z,5.10
2023-02-02T18:44:48.072Z,4.77
2023-02-02T18:47:15.370Z,5.13
2023-02-02T18:49:44.709Z,3.60
2023-02-02T18:52:11.953Z,3.90
2023-02-02T18:54:39.719Z,4.13
2023-02-02T18:57:07.041Z,5.23
2023-02-02T18:59:35.466Z,3.90
2023-02-02T19:02:02.812Z,4.40
2023-02-02T19:04:30.207Z,3.87
2023-02-02T19:07:16.580Z,4.70
2023-02-02T19:09:43.837Z,4.80
2023-02-02T19:12:13.469Z,4.53
2023-02-02T19:14:41.731Z,5.20
2023-02-02T19:17:21.014Z,6.10
2023-02-02T19:19:49.622Z,4.10
2023-02-02T19:22:24.450Z,6.10
2023-02-02T19:24:52.161Z,5.80
2023-02-02T19:27:21.742Z,4.27
2023-02-02T19:29:50.621Z,4.57
2023-02-02T19:32:20.972Z,4.80
2023-02-02T19:34:48.741Z,4.47
2023-02-02T19:37:23.762Z,4.33
2023-02-02T19:39:53.344Z,4.07
2023-02-02T19:42:20.645Z,3.87
2023-02-02T19:44:48.115Z,4.23
2023-02-02T19:47:30.397Z,4.60
2023-02-02T19:49:58.520Z,3.43
2023-02-02T19:52:27.059Z,3.77
2023-02-02T19:54:54.587Z,4.30
2023-02-02T19:57:32.035Z,2.90
2023-02-02T20:00:01.739Z,4.60
2023-02-02T20:02:48.353Z,4.70
2023-02-02T20:05:19.483Z,5.07
2023-02-02T20:07:48.119Z,5.73
2023-02-02T20:10:20.491Z,5.63
2023-02-02T20:12:48.220Z,4.87
2023-02-02T20:15:27.602Z,3.70
2023-02-02T20:17:57.474Z,4.63
2023-02-02T20:20:28.352Z,4.50
2023-02-02T20:22:57.988Z,5.30
2023-02-02T20:25:25.525Z,5.60
2023-02-02T20:27:53.756Z,6.30
2023-02-02T20:30:25.060Z,3.90
2023-02-02T20:32:55.847Z,5.87
2023-02-02T20:35:35.879Z,5.30
2023-02-02T20:38:16.157Z,5.30
2023-02-02T20:40:43.486Z,4.87
2023-02-02T20:43:10.868Z,6.07
2023-02-02T20:45:38.284Z,6.13
2023-02-02T20:48:05.873Z,6.07
2023-02-02T20:50:33.339Z,6.50
2023-02-02T20:53:00.884Z,9.03
2023-02-02T20:55:29.419Z,12.13
2023-02-02T20:57:57.309Z,13.30
2023-02-02T21:00:26.869Z,11.43
2023-02-02T21:02:55.291Z,6.70
2023-02-02T21:05:23.104Z,5.80
2023-02-02T21:07:53.983Z,5.67
2023-02-02T21:10:22.128Z,4.23
2023-02-02T21:12:51.993Z,5.77
2023-02-02T21:15:19.898Z,4.07
2023-02-02T21:17:47.430Z,5.53
2023-02-02T21:20:15.346Z,4.37
2023-02-02T21:22:42.819Z,4.03
2023-02-02T21:25:10.725Z,4.20
2023-02-02T21:27:40.525Z,3.40
2023-02-02T21:30:12.664Z,4.27
2023-02-02T21:32:40.480Z,4.20
2023-02-02T21:35:08.831Z,3.43
2023-02-02T21:37:37.228Z,3.37
2023-02-02T21:40:13.453Z,3.00
2023-02-02T21:42:47.243Z,3.20
2023-02-02T21:45:33.418Z,3.90
2023-02-02T21:48:04.891Z,3.77
2023-02-02T21:50:35.157Z,3.13
2023-02-02T21:53:19.436Z,4.23
2023-02-02T21:55:50.218Z,4.80
2023-02-02T21:58:24.874Z,5.53
2023-02-02T22:00:54.662Z,4.47
2023-02-02T22:03:34.743Z,3.10
2023-02-02T22:06:24.984Z,3.87
2023-02-02T22:08:54.594Z,3.50
2023-02-02T22:11:29.224Z,4.30
2023-02-02T22:14:00.709Z,3.57
2023-02-02T22:16:41.809Z,3.70
2023-02-02T22:19:26.879Z,4.20
2023-02-02T22:21:58.701Z,5.07
2023-02-02T22:24:26.676Z,8.03
2023-02-02T22:26:54.225Z,5.60
2023-02-02T22:29:24.833Z,5.40
2023-02-02T22:31:54.643Z,4.10
2023-02-02T22:34:22.035Z,7.43
2023-02-02T22:36:49.657Z,7.40
2023-02-02T22:39:16.931Z,5.50
2023-02-02T22:41:44.393Z,4.10
2023-02-02T22:44:11.615Z,3.80
2023-02-02T22:46:38.970Z,4.33
2023-02-02T22:49:07.011Z,4.60
2023-02-02T22:51:34.278Z,4.23
2023-02-02T22:54:01.586Z,4.63
2023-02-02T22:56:28.899Z,4.37
2023-02-02T22:58:56.192Z,4.40
2023-02-02T23:01:23.459Z,3.63
2023-02-02T23:03:50.736Z,4.10
2023-02-02T23:06:18.696Z,3.13
2023-02-02T23:08:45.985Z,3.27
2023-02-02T23:11:13.235Z,3.00
2023-02-02T23:13:40.508Z,3.67
2023-02-02T23:16:10.015Z,3.20
2023-02-02T23:18:37.336Z,3.40
2023-02-02T23:21:04.822Z,3.53
2023-02-02T23:23:32.787Z,3.23
2023-02-02T23:26:00.051Z,4.27
2023-02-02T23:28:27.310Z,3.90
2023-02-02T23:30:57.945Z,3.57
2023-02-02T23:33:25.453Z,4.90
2023-02-02T23:35:52.751Z,3.00
2023-02-02T23:38:19.995Z,3.67
2023-02-02T23:40:47.902Z,3.33
2023-02-02T23:43:15.197Z,3.67
2023-02-02T23:45:42.454Z,3.10
2023-02-02T23:48:11.725Z,3.53
2023-02-02T23:50:39.174Z,3.97
2023-02-02T23:53:07.871Z,3.33
2023-02-02T23:55:35.445Z,3.57
2023-02-02T23:58:03.585Z,3.30
